Hovedside
METAR-TAF:

METAR-TAF

Lufthavner :

Luleå lufthavn

Luleå, Sverige

breddegrad: 65-33N, lengdegrad: 022-08E, høyde over havet: 17 m

Gjeldene værobservasjon

Denne rapporten ble laget for 16 minutter siden, klokken 14:20 UTC
Vind 8 kt fra Sørøst
Temperatur 28°C
Luftfuktighet 35%
Trykk 1017 hPa
Sikt 10 km eller mer
ingen skyer under 1500 m og ingen bygeskyer

METAR: ESPA 181420Z 14008KT CAVOK 28/11 Q1017

Tid: 16:36 (14:36 UTC)

Varsel

Denne rapporten ble laget for 6 minutter siden, klokken 14:30 UTC
Varsel gyldig fra 18. klokken 15 UTC til 18. klokken 23 UTC
Vind 12 kt fra Sør-sørøst
Sikt 10 km eller mer
ingen skyer under 1500 m og ingen bygeskyer
Blir
fra 18. klokken 19 UTC til 18. klokken 21 UTC
Vind 6 kt fra Øst

TAF: ESPA 181430Z 1815/1823 15012KT CAVOK BECMG 1819/1821 09006KT

Værobservasjoner og værvarsel for over 4000 flyplasser (METAR- og TAF-rapporter).

Tilgjengelige stasjoner er representert av de røde og gule prikkene på kartet.

Hold musepekeren over prikken for å se navnet på stasjonen.

Klikk så for å se værobservasjoner og -varsler.

For å forandre kartet kan du klikke på den grønne knappen med svart kryss for å zoome inn, på den grønne knappen med strek for å zoome ut, eller på de grønne pilene for å se tilstøtende kart.


METAR-TAF: